Terminal Aerodrome Forecast
Issued by NWS

Home | Current Version | Previous Version | Text Only | Print | Product List | Glossary On
Versions: 1 2 3 4 5 6 7 8 9 10 11 12 13 14 15 16 17 18 19 20 21 22 23 24
000
FTUS43 KGRR 301143
TAFAZO
TAF
KAZO 301143Z 3012/3112 19004KT 6SM -SHRA BR VCTS SCT040 BKN100CB
     FM301600 23006KT P6SM VCTS SCT025CB BKN100
     FM302300 26004KT P6SM BKN100
     FM310800 33004KT 3SM BR VCSH BKN015=

USA.gov is the U.S. government's official web portal to all federal, state and local government web resources and services.